sensor_id;sensor_type;location;lat;lon;timestamp;temperature;humidity
22925;DHT22;11628;51.072;3.712;2024-03-02T00:01:14;6.00;99.90
22925;DHT22;11628;51.072;3.712;2024-03-02T00:03:42;6.10;99.90
22925;DHT22;11628;51.072;3.712;2024-03-02T00:06:10;5.90;99.90
22925;DHT22;11628;51.072;3.712;2024-03-02T00:08:38;6.10;99.90
22925;DHT22;11628;51.072;3.712;2024-03-02T00:11:07;6.00;99.90
22925;DHT22;11628;51.072;3.712;2024-03-02T00:13:33;6.00;99.90
22925;DHT22;11628;51.072;3.712;2024-03-02T00:16:03;6.00;99.90
22925;DHT22;11628;51.072;3.712;2024-03-02T00:20:58;6.20;99.90
22925;DHT22;11628;51.072;3.712;2024-03-02T00:23:30;6.00;99.90
22925;DHT22;11628;51.072;3.712;2024-03-02T00:25:59;6.10;99.90
22925;DHT22;11628;51.072;3.712;2024-03-02T00:28:27;6.10;99.90
22925;DHT22;11628;51.072;3.712;2024-03-02T00:33:27;5.90;99.90
22925;DHT22;11628;51.072;3.712;2024-03-02T00:35:54;6.00;99.90
22925;DHT22;11628;51.072;3.712;2024-03-02T00:38:25;6.10;99.90
22925;DHT22;11628;51.072;3.712;2024-03-02T00:40:53;6.00;99.90
22925;DHT22;11628;51.072;3.712;2024-03-02T00:46:12;6.00;99.90
22925;DHT22;11628;51.072;3.712;2024-03-02T00:48:41;6.00;99.90
22925;DHT22;11628;51.072;3.712;2024-03-02T00:51:10;6.10;99.90
22925;DHT22;11628;51.072;3.712;2024-03-02T00:53:37;6.10;99.90
22925;DHT22;11628;51.072;3.712;2024-03-02T00:56:03;6.20;99.90
22925;DHT22;11628;51.072;3.712;2024-03-02T00:58:33;6.20;99.90
22925;DHT22;11628;51.072;3.712;2024-03-02T01:00:59;6.20;99.90
22925;DHT22;11628;51.072;3.712;2024-03-02T01:03:24;6.20;99.90
22925;DHT22;11628;51.072;3.712;2024-03-02T01:05:52;6.30;99.90
22925;DHT22;11628;51.072;3.712;2024-03-02T01:08:18;6.20;99.90
22925;DHT22;11628;51.072;3.712;2024-03-02T01:10:46;6.10;99.90
22925;DHT22;11628;51.072;3.712;2024-03-02T01:13:11;6.10;99.90
22925;DHT22;11628;51.072;3.712;2024-03-02T01:15:37;6.10;99.90
22925;DHT22;11628;51.072;3.712;2024-03-02T01:18:03;6.10;99.90
22925;DHT22;11628;51.072;3.712;2024-03-02T01:20:29;6.10;99.90
22925;DHT22;11628;51.072;3.712;2024-03-02T01:22:54;6.10;99.90
22925;DHT22;11628;51.072;3.712;2024-03-02T01:25:20;6.10;99.90
22925;DHT22;11628;51.072;3.712;2024-03-02T01:27:48;6.10;99.90
22925;DHT22;11628;51.072;3.712;2024-03-02T01:30:14;6.10;99.90
22925;DHT22;11628;51.072;3.712;2024-03-02T01:32:40;6.10;99.90
22925;DHT22;11628;51.072;3.712;2024-03-02T01:35:06;6.10;99.90
22925;DHT22;11628;51.072;3.712;2024-03-02T01:37:35;6.10;99.90
22925;DHT22;11628;51.072;3.712;2024-03-02T01:40:00;6.10;99.90
22925;DHT22;11628;51.072;3.712;2024-03-02T01:42:26;6.10;99.90
22925;DHT22;11628;51.072;3.712;2024-03-02T01:44:52;6.10;99.90
22925;DHT22;11628;51.072;3.712;2024-03-02T01:47:18;6.10;99.90
22925;DHT22;11628;51.072;3.712;2024-03-02T01:49:46;6.10;99.90
22925;DHT22;11628;51.072;3.712;2024-03-02T01:52:11;6.10;99.90
22925;DHT22;11628;51.072;3.712;2024-03-02T01:54:37;6.10;99.90
22925;DHT22;11628;51.072;3.712;2024-03-02T01:57:03;6.10;99.90
22925;DHT22;11628;51.072;3.712;2024-03-02T01:59:29;6.10;99.90
22925;DHT22;11628;51.072;3.712;2024-03-02T02:01:55;6.10;99.90
22925;DHT22;11628;51.072;3.712;2024-03-02T02:04:20;6.00;99.90
22925;DHT22;11628;51.072;3.712;2024-03-02T02:06:52;6.00;99.90
22925;DHT22;11628;51.072;3.712;2024-03-02T02:09:22;6.00;99.90
22925;DHT22;11628;51.072;3.712;2024-03-02T02:11:53;6.00;99.90
22925;DHT22;11628;51.072;3.712;2024-03-02T02:14:19;6.10;99.90
22925;DHT22;11628;51.072;3.712;2024-03-02T02:16:44;6.10;99.90
22925;DHT22;11628;51.072;3.712;2024-03-02T02:19:10;6.10;99.90
22925;DHT22;11628;51.072;3.712;2024-03-02T02:21:36;6.10;99.90
22925;DHT22;11628;51.072;3.712;2024-03-02T02:24:01;6.10;99.90
22925;DHT22;11628;51.072;3.712;2024-03-02T02:26:32;6.10;99.90
22925;DHT22;11628;51.072;3.712;2024-03-02T02:29:00;6.10;99.90
22925;DHT22;11628;51.072;3.712;2024-03-02T02:31:26;6.10;99.90
22925;DHT22;11628;51.072;3.712;2024-03-02T02:33:56;6.10;99.90
22925;DHT22;11628;51.072;3.712;2024-03-02T02:36:25;6.10;99.90
22925;DHT22;11628;51.072;3.712;2024-03-02T02:38:50;6.00;99.90
22925;DHT22;11628;51.072;3.712;2024-03-02T02:41:18;6.00;99.90
22925;DHT22;11628;51.072;3.712;2024-03-02T02:43:44;6.00;99.90
22925;DHT22;11628;51.072;3.712;2024-03-02T02:46:12;6.10;99.90
22925;DHT22;11628;51.072;3.712;2024-03-02T02:48:40;6.00;99.90
22925;DHT22;11628;51.072;3.712;2024-03-02T02:51:05;6.00;99.90
22925;DHT22;11628;51.072;3.712;2024-03-02T02:53:33;6.00;99.90
22925;DHT22;11628;51.072;3.712;2024-03-02T02:56:08;6.00;99.90
22925;DHT22;11628;51.072;3.712;2024-03-02T02:58:34;6.00;99.90
22925;DHT22;11628;51.072;3.712;2024-03-02T03:01:00;6.10;99.90
22925;DHT22;11628;51.072;3.712;2024-03-02T03:03:25;6.10;99.90
22925;DHT22;11628;51.072;3.712;2024-03-02T03:05:51;6.10;99.90
22925;DHT22;11628;51.072;3.712;2024-03-02T03:08:19;6.20;99.90
22925;DHT22;11628;51.072;3.712;2024-03-02T03:10:44;6.10;99.90
22925;DHT22;11628;51.072;3.712;2024-03-02T03:13:10;6.10;99.90
22925;DHT22;11628;51.072;3.712;2024-03-02T03:15:36;6.10;99.90
22925;DHT22;11628;51.072;3.712;2024-03-02T03:18:05;6.10;99.90
22925;DHT22;11628;51.072;3.712;2024-03-02T03:20:33;6.00;99.90
22925;DHT22;11628;51.072;3.712;2024-03-02T03:22:59;6.00;99.90
22925;DHT22;11628;51.072;3.712;2024-03-02T03:25:25;6.00;99.90
22925;DHT22;11628;51.072;3.712;2024-03-02T03:27:51;5.90;99.90
22925;DHT22;11628;51.072;3.712;2024-03-02T03:30:18;6.00;99.90
22925;DHT22;11628;51.072;3.712;2024-03-02T03:32:44;6.00;99.90
22925;DHT22;11628;51.072;3.712;2024-03-02T03:35:13;5.90;99.90
22925;DHT22;11628;51.072;3.712;2024-03-02T03:37:40;5.90;99.90
22925;DHT22;11628;51.072;3.712;2024-03-02T03:40:09;5.90;99.90
22925;DHT22;11628;51.072;3.712;2024-03-02T03:42:39;5.90;99.90
22925;DHT22;11628;51.072;3.712;2024-03-02T03:45:06;5.90;99.90
22925;DHT22;11628;51.072;3.712;2024-03-02T03:47:36;5.80;99.90
22925;DHT22;11628;51.072;3.712;2024-03-02T03:50:02;5.90;99.90
22925;DHT22;11628;51.072;3.712;2024-03-02T03:52:33;5.90;99.90
22925;DHT22;11628;51.072;3.712;2024-03-02T03:54:59;5.90;99.90
22925;DHT22;11628;51.072;3.712;2024-03-02T03:57:25;5.80;99.90
22925;DHT22;11628;51.072;3.712;2024-03-02T03:59:52;5.90;99.90
22925;DHT22;11628;51.072;3.712;2024-03-02T04:02:17;5.90;99.90
22925;DHT22;11628;51.072;3.712;2024-03-02T04:04:43;5.90;99.90
22925;DHT22;11628;51.072;3.712;2024-03-02T04:07:09;5.80;99.90
22925;DHT22;11628;51.072;3.712;2024-03-02T04:09:35;5.90;99.90
22925;DHT22;11628;51.072;3.712;2024-03-02T04:12:00;5.80;99.90
22925;DHT22;11628;51.072;3.712;2024-03-02T04:14:28;5.80;99.90
22925;DHT22;11628;51.072;3.712;2024-03-02T04:16:56;5.80;99.90
22925;DHT22;11628;51.072;3.712;2024-03-02T04:19:24;5.80;99.90
22925;DHT22;11628;51.072;3.712;2024-03-02T04:21:52;5.80;99.90
22925;DHT22;11628;51.072;3.712;2024-03-02T04:24:20;5.80;99.90
22925;DHT22;11628;51.072;3.712;2024-03-02T04:26:45;5.80;99.90
22925;DHT22;11628;51.072;3.712;2024-03-02T04:29:11;5.90;99.90
22925;DHT22;11628;51.072;3.712;2024-03-02T04:31:39;5.90;99.90
22925;DHT22;11628;51.072;3.712;2024-03-02T04:34:09;6.00;99.90
22925;DHT22;11628;51.072;3.712;2024-03-02T04:36:38;6.00;99.90
22925;DHT22;11628;51.072;3.712;2024-03-02T04:39:03;6.10;99.90
22925;DHT22;11628;51.072;3.712;2024-03-02T04:41:32;6.10;99.90
22925;DHT22;11628;51.072;3.712;2024-03-02T04:44:00;6.20;99.90
22925;DHT22;11628;51.072;3.712;2024-03-02T04:46:25;6.20;99.90
22925;DHT22;11628;51.072;3.712;2024-03-02T04:48:54;6.20;99.90
22925;DHT22;11628;51.072;3.712;2024-03-02T04:51:22;6.20;99.90
22925;DHT22;11628;51.072;3.712;2024-03-02T04:53:48;6.10;99.90
22925;DHT22;11628;51.072;3.712;2024-03-02T04:56:16;6.10;99.90
22925;DHT22;11628;51.072;3.712;2024-03-02T04:58:57;6.00;99.90
22925;DHT22;11628;51.072;3.712;2024-03-02T05:01:22;6.00;99.90
22925;DHT22;11628;51.072;3.712;2024-03-02T05:03:50;6.00;99.90
22925;DHT22;11628;51.072;3.712;2024-03-02T05:06:18;5.90;99.90
22925;DHT22;11628;51.072;3.712;2024-03-02T05:08:46;5.90;99.90
22925;DHT22;11628;51.072;3.712;2024-03-02T05:11:13;5.90;99.90
22925;DHT22;11628;51.072;3.712;2024-03-02T05:14:14;5.90;99.90
22925;DHT22;11628;51.072;3.712;2024-03-02T05:16:41;5.90;99.90
22925;DHT22;11628;51.072;3.712;2024-03-02T05:19:07;5.90;99.90
22925;DHT22;11628;51.072;3.712;2024-03-02T05:21:36;5.80;99.90
22925;DHT22;11628;51.072;3.712;2024-03-02T05:24:01;5.80;99.90
22925;DHT22;11628;51.072;3.712;2024-03-02T05:26:27;5.80;99.90
22925;DHT22;11628;51.072;3.712;2024-03-02T05:28:53;5.80;99.90
22925;DHT22;11628;51.072;3.712;2024-03-02T05:31:23;5.80;99.90
22925;DHT22;11628;51.072;3.712;2024-03-02T05:33:49;5.80;99.90
22925;DHT22;11628;51.072;3.712;2024-03-02T05:36:14;5.90;99.90
22925;DHT22;11628;51.072;3.712;2024-03-02T05:38:40;5.80;99.90
22925;DHT22;11628;51.072;3.712;2024-03-02T05:41:06;5.80;99.90
22925;DHT22;11628;51.072;3.712;2024-03-02T05:43:32;5.70;99.90
22925;DHT22;11628;51.072;3.712;2024-03-02T05:45:57;5.70;99.90
22925;DHT22;11628;51.072;3.712;2024-03-02T05:48:23;5.80;99.90
22925;DHT22;11628;51.072;3.712;2024-03-02T05:50:49;5.70;99.90
22925;DHT22;11628;51.072;3.712;2024-03-02T05:53:14;5.70;99.90
22925;DHT22;11628;51.072;3.712;2024-03-02T05:55:41;5.70;99.90
22925;DHT22;11628;51.072;3.712;2024-03-02T05:58:08;5.70;99.90
22925;DHT22;11628;51.072;3.712;2024-03-02T06:00:56;5.70;99.90
22925;DHT22;11628;51.072;3.712;2024-03-02T06:03:22;5.60;99.90
22925;DHT22;11628;51.072;3.712;2024-03-02T06:05:50;5.60;99.90
22925;DHT22;11628;51.072;3.712;2024-03-02T06:08:16;5.60;99.90
22925;DHT22;11628;51.072;3.712;2024-03-02T06:10:44;5.60;99.90
22925;DHT22;11628;51.072;3.712;2024-03-02T06:13:10;5.60;99.90
22925;DHT22;11628;51.072;3.712;2024-03-02T06:15:35;5.60;99.90
22925;DHT22;11628;51.072;3.712;2024-03-02T06:18:04;5.50;99.90
22925;DHT22;11628;51.072;3.712;2024-03-02T06:20:33;5.50;99.90
22925;DHT22;11628;51.072;3.712;2024-03-02T06:22:59;5.60;99.90
22925;DHT22;11628;51.072;3.712;2024-03-02T06:25:27;5.50;99.90
22925;DHT22;11628;51.072;3.712;2024-03-02T06:27:53;5.50;99.90
22925;DHT22;11628;51.072;3.712;2024-03-02T06:30:19;5.50;99.90
22925;DHT22;11628;51.072;3.712;2024-03-02T06:32:44;5.50;99.90
22925;DHT22;11628;51.072;3.712;2024-03-02T06:35:12;5.50;99.90
22925;DHT22;11628;51.072;3.712;2024-03-02T06:37:38;5.50;99.90
22925;DHT22;11628;51.072;3.712;2024-03-02T06:40:08;5.50;99.90
22925;DHT22;11628;51.072;3.712;2024-03-02T06:42:37;5.50;99.90
22925;DHT22;11628;51.072;3.712;2024-03-02T06:45:03;5.50;99.90
22925;DHT22;11628;51.072;3.712;2024-03-02T06:47:29;5.50;99.90
22925;DHT22;11628;51.072;3.712;2024-03-02T06:49:55;5.50;99.90
22925;DHT22;11628;51.072;3.712;2024-03-02T06:52:22;5.60;99.90
22925;DHT22;11628;51.072;3.712;2024-03-02T06:54:48;5.60;99.90
22925;DHT22;11628;51.072;3.712;2024-03-02T06:57:14;5.60;99.90
22925;DHT22;11628;51.072;3.712;2024-03-02T06:59:39;5.60;99.90
22925;DHT22;11628;51.072;3.712;2024-03-02T07:02:07;5.60;99.90
22925;DHT22;11628;51.072;3.712;2024-03-02T07:04:34;5.70;99.90
22925;DHT22;11628;51.072;3.712;2024-03-02T07:07:00;5.70;99.90
22925;DHT22;11628;51.072;3.712;2024-03-02T07:09:25;5.80;99.90
22925;DHT22;11628;51.072;3.712;2024-03-02T07:11:53;5.80;99.90
22925;DHT22;11628;51.072;3.712;2024-03-02T07:14:19;5.80;99.90
22925;DHT22;11628;51.072;3.712;2024-03-02T07:16:44;5.90;99.90
22925;DHT22;11628;51.072;3.712;2024-03-02T07:19:10;6.00;99.90
22925;DHT22;11628;51.072;3.712;2024-03-02T07:21:35;6.00;99.90
22925;DHT22;11628;51.072;3.712;2024-03-02T07:24:06;6.10;99.90
22925;DHT22;11628;51.072;3.712;2024-03-02T07:26:34;6.10;99.90
22925;DHT22;11628;51.072;3.712;2024-03-02T07:29:00;6.10;99.90
22925;DHT22;11628;51.072;3.712;2024-03-02T07:31:26;6.30;99.90
22925;DHT22;11628;51.072;3.712;2024-03-02T07:33:52;6.30;99.90
22925;DHT22;11628;51.072;3.712;2024-03-02T07:36:18;6.30;99.90
22925;DHT22;11628;51.072;3.712;2024-03-02T07:38:47;6.40;99.90
22925;DHT22;11628;51.072;3.712;2024-03-02T07:41:15;6.40;99.90
22925;DHT22;11628;51.072;3.712;2024-03-02T07:43:41;6.60;99.90
22925;DHT22;11628;51.072;3.712;2024-03-02T07:46:09;7.20;99.90
22925;DHT22;11628;51.072;3.712;2024-03-02T07:48:37;8.00;99.90
22925;DHT22;11628;51.072;3.712;2024-03-02T07:51:05;8.60;99.90
22925;DHT22;11628;51.072;3.712;2024-03-02T07:53:32;9.50;99.90
22925;DHT22;11628;51.072;3.712;2024-03-02T07:56:00;9.90;99.90
22925;DHT22;11628;51.072;3.712;2024-03-02T07:58:28;9.60;99.90
22925;DHT22;11628;51.072;3.712;2024-03-02T08:00:56;10.00;99.90
22925;DHT22;11628;51.072;3.712;2024-03-02T08:03:22;10.40;99.90
22925;DHT22;11628;51.072;3.712;2024-03-02T08:05:50;10.30;99.90
22925;DHT22;11628;51.072;3.712;2024-03-02T08:08:16;10.00;99.90
22925;DHT22;11628;51.072;3.712;2024-03-02T08:10:44;10.40;99.90
22925;DHT22;11628;51.072;3.712;2024-03-02T08:13:10;10.20;99.90
22925;DHT22;11628;51.072;3.712;2024-03-02T08:15:35;10.20;99.90
22925;DHT22;11628;51.072;3.712;2024-03-02T08:18:01;10.80;99.90
22925;DHT22;11628;51.072;3.712;2024-03-02T08:20:27;11.60;99.90
22925;DHT22;11628;51.072;3.712;2024-03-02T08:22:55;11.20;99.90
22925;DHT22;11628;51.072;3.712;2024-03-02T08:25:21;10.60;99.90
22925;DHT22;11628;51.072;3.712;2024-03-02T08:27:47;11.20;99.90
22925;DHT22;11628;51.072;3.712;2024-03-02T08:30:15;12.10;99.90
22925;DHT22;11628;51.072;3.712;2024-03-02T08:32:43;12.20;99.90
22925;DHT22;11628;51.072;3.712;2024-03-02T08:35:10;12.60;99.90
22925;DHT22;11628;51.072;3.712;2024-03-02T08:37:40;13.40;99.90
22925;DHT22;11628;51.072;3.712;2024-03-02T08:40:10;14.00;99.90
22925;DHT22;11628;51.072;3.712;2024-03-02T08:42:36;13.50;99.90
22925;DHT22;11628;51.072;3.712;2024-03-02T08:45:02;12.10;99.90
22925;DHT22;11628;51.072;3.712;2024-03-02T08:47:30;12.60;99.90
22925;DHT22;11628;51.072;3.712;2024-03-02T08:49:56;12.20;99.90
22925;DHT22;11628;51.072;3.712;2024-03-02T08:52:23;11.80;99.90
22925;DHT22;11628;51.072;3.712;2024-03-02T08:54:51;11.50;99.90
22925;DHT22;11628;51.072;3.712;2024-03-02T08:57:17;10.60;99.90
22925;DHT22;11628;51.072;3.712;2024-03-02T08:59:43;10.10;99.90
22925;DHT22;11628;51.072;3.712;2024-03-02T09:02:09;9.60;99.90
22925;DHT22;11628;51.072;3.712;2024-03-02T09:04:35;9.80;99.90
22925;DHT22;11628;51.072;3.712;2024-03-02T09:07:01;9.40;99.90
22925;DHT22;11628;51.072;3.712;2024-03-02T09:09:27;10.00;99.90
22925;DHT22;11628;51.072;3.712;2024-03-02T09:11:53;10.50;99.90
22925;DHT22;11628;51.072;3.712;2024-03-02T09:14:22;11.30;99.90
22925;DHT22;11628;51.072;3.712;2024-03-02T09:16:49;11.40;99.90
22925;DHT22;11628;51.072;3.712;2024-03-02T09:19:19;12.40;99.90
22925;DHT22;11628;51.072;3.712;2024-03-02T09:21:46;12.80;99.90
22925;DHT22;11628;51.072;3.712;2024-03-02T09:24:12;11.80;99.90
22925;DHT22;11628;51.072;3.712;2024-03-02T09:26:40;11.40;99.90
22925;DHT22;11628;51.072;3.712;2024-03-02T09:29:05;11.00;99.90
22925;DHT22;11628;51.072;3.712;2024-03-02T09:31:31;10.60;99.90
22925;DHT22;11628;51.072;3.712;2024-03-02T09:33:57;10.40;99.90
22925;DHT22;11628;51.072;3.712;2024-03-02T09:36:23;10.20;99.90
22925;DHT22;11628;51.072;3.712;2024-03-02T09:38:51;10.90;99.90
22925;DHT22;11628;51.072;3.712;2024-03-02T09:41:21;12.50;99.90
22925;DHT22;11628;51.072;3.712;2024-03-02T09:43:50;13.90;99.90
22925;DHT22;11628;51.072;3.712;2024-03-02T09:46:19;14.20;99.90
22925;DHT22;11628;51.072;3.712;2024-03-02T09:48:47;14.00;99.90
22925;DHT22;11628;51.072;3.712;2024-03-02T09:51:17;15.10;99.90
22925;DHT22;11628;51.072;3.712;2024-03-02T09:53:47;14.60;99.90
22925;DHT22;11628;51.072;3.712;2024-03-02T09:56:15;14.80;99.90
22925;DHT22;11628;51.072;3.712;2024-03-02T09:58:44;14.60;99.90
22925;DHT22;11628;51.072;3.712;2024-03-02T10:01:09;15.50;99.90
22925;DHT22;11628;51.072;3.712;2024-03-02T10:03:40;15.80;99.90
22925;DHT22;11628;51.072;3.712;2024-03-02T10:06:19;14.40;99.90
22925;DHT22;11628;51.072;3.712;2024-03-02T10:08:45;12.80;99.90
22925;DHT22;11628;51.072;3.712;2024-03-02T10:11:11;12.50;99.90
22925;DHT22;11628;51.072;3.712;2024-03-02T10:14:10;12.40;99.90
22925;DHT22;11628;51.072;3.712;2024-03-02T10:21:50;14.10;99.90
22925;DHT22;11628;51.072;3.712;2024-03-02T10:24:17;13.70;99.90
22925;DHT22;11628;51.072;3.712;2024-03-02T10:26:42;13.80;99.90
22925;DHT22;11628;51.072;3.712;2024-03-02T10:29:12;13.90;99.90
22925;DHT22;11628;51.072;3.712;2024-03-02T10:31:39;13.30;99.90
22925;DHT22;11628;51.072;3.712;2024-03-02T10:34:09;13.10;99.90
22925;DHT22;11628;51.072;3.712;2024-03-02T10:36:35;13.00;99.90
22925;DHT22;11628;51.072;3.712;2024-03-02T10:39:05;13.00;99.90
22925;DHT22;11628;51.072;3.712;2024-03-02T10:41:39;12.90;99.90
22925;DHT22;11628;51.072;3.712;2024-03-02T10:44:09;12.60;99.90
22925;DHT22;11628;51.072;3.712;2024-03-02T10:46:36;12.00;99.90
22925;DHT22;11628;51.072;3.712;2024-03-02T10:49:04;11.80;99.90
22925;DHT22;11628;51.072;3.712;2024-03-02T10:51:31;11.50;99.90
22925;DHT22;11628;51.072;3.712;2024-03-02T10:53:58;11.50;99.90
22925;DHT22;11628;51.072;3.712;2024-03-02T10:56:30;11.50;99.90
22925;DHT22;11628;51.072;3.712;2024-03-02T11:01:29;11.70;99.90
22925;DHT22;11628;51.072;3.712;2024-03-02T11:03:57;11.90;99.90
22925;DHT22;11628;51.072;3.712;2024-03-02T11:06:24;12.80;99.90
22925;DHT22;11628;51.072;3.712;2024-03-02T11:08:53;13.60;99.90
22925;DHT22;11628;51.072;3.712;2024-03-02T11:11:29;13.90;99.90
22925;DHT22;11628;51.072;3.712;2024-03-02T11:13:57;14.20;99.90
22925;DHT22;11628;51.072;3.712;2024-03-02T11:16:36;14.40;99.90
22925;DHT22;11628;51.072;3.712;2024-03-02T11:19:08;13.20;99.90
22925;DHT22;11628;51.072;3.712;2024-03-02T11:21:35;13.00;99.90
22925;DHT22;11628;51.072;3.712;2024-03-02T11:26:52;13.20;99.90
22925;DHT22;11628;51.072;3.712;2024-03-02T11:32:05;13.10;99.90
22925;DHT22;11628;51.072;3.712;2024-03-02T11:34:35;12.60;99.90
22925;DHT22;11628;51.072;3.712;2024-03-02T11:37:02;12.40;99.90
22925;DHT22;11628;51.072;3.712;2024-03-02T11:39:28;12.60;99.90
22925;DHT22;11628;51.072;3.712;2024-03-02T11:41:57;12.70;99.90
22925;DHT22;11628;51.072;3.712;2024-03-02T11:44:27;13.00;99.90
22925;DHT22;11628;51.072;3.712;2024-03-02T11:47:00;13.00;99.90
22925;DHT22;11628;51.072;3.712;2024-03-02T11:49:49;13.10;99.90
22925;DHT22;11628;51.072;3.712;2024-03-02T11:52:15;13.10;99.90
22925;DHT22;11628;51.072;3.712;2024-03-02T11:54:44;12.80;99.90
22925;DHT22;11628;51.072;3.712;2024-03-02T11:57:22;12.90;99.90
22925;DHT22;11628;51.072;3.712;2024-03-02T11:59:48;12.50;99.90
22925;DHT22;11628;51.072;3.712;2024-03-02T12:02:20;12.60;99.90
22925;DHT22;11628;51.072;3.712;2024-03-02T12:04:49;12.50;99.90
22925;DHT22;11628;51.072;3.712;2024-03-02T12:07:22;12.50;99.90
22925;DHT22;11628;51.072;3.712;2024-03-02T12:10:01;12.10;99.90
22925;DHT22;11628;51.072;3.712;2024-03-02T12:12:28;11.80;99.90
22925;DHT22;11628;51.072;3.712;2024-03-02T12:14:54;11.60;99.90
22925;DHT22;11628;51.072;3.712;2024-03-02T12:17:22;11.60;99.90
22925;DHT22;11628;51.072;3.712;2024-03-02T12:19:48;11.60;99.90
22925;DHT22;11628;51.072;3.712;2024-03-02T12:22:14;11.70;99.90
22925;DHT22;11628;51.072;3.712;2024-03-02T12:24:41;11.70;99.90
22925;DHT22;11628;51.072;3.712;2024-03-02T12:27:11;11.60;99.90
22925;DHT22;11628;51.072;3.712;2024-03-02T12:29:39;11.50;99.90
22925;DHT22;11628;51.072;3.712;2024-03-02T12:32:05;11.40;99.90
22925;DHT22;11628;51.072;3.712;2024-03-02T12:34:35;11.30;99.90
22925;DHT22;11628;51.072;3.712;2024-03-02T12:37:05;11.30;99.90
22925;DHT22;11628;51.072;3.712;2024-03-02T12:39:31;11.30;99.90
22925;DHT22;11628;51.072;3.712;2024-03-02T12:41:58;11.30;99.90
22925;DHT22;11628;51.072;3.712;2024-03-02T12:44:26;11.20;99.90
22925;DHT22;11628;51.072;3.712;2024-03-02T12:46:52;11.20;99.90
22925;DHT22;11628;51.072;3.712;2024-03-02T12:49:22;10.90;99.90
22925;DHT22;11628;51.072;3.712;2024-03-02T12:51:48;10.90;99.90
22925;DHT22;11628;51.072;3.712;2024-03-02T12:54:21;10.90;99.90
22925;DHT22;11628;51.072;3.712;2024-03-02T12:56:47;10.80;99.90
22925;DHT22;11628;51.072;3.712;2024-03-02T12:59:20;10.70;99.90
22925;DHT22;11628;51.072;3.712;2024-03-02T13:01:54;10.40;99.90
22925;DHT22;11628;51.072;3.712;2024-03-02T13:04:26;10.40;99.90
22925;DHT22;11628;51.072;3.712;2024-03-02T13:06:52;10.20;99.90
22925;DHT22;11628;51.072;3.712;2024-03-02T13:09:19;10.30;99.90
22925;DHT22;11628;51.072;3.712;2024-03-02T13:11:44;10.30;99.90
22925;DHT22;11628;51.072;3.712;2024-03-02T13:14:13;10.20;99.90
22925;DHT22;11628;51.072;3.712;2024-03-02T13:16:42;10.10;99.90
22925;DHT22;11628;51.072;3.712;2024-03-02T13:19:18;10.10;99.90
22925;DHT22;11628;51.072;3.712;2024-03-02T13:21:45;10.10;99.90
22925;DHT22;11628;51.072;3.712;2024-03-02T13:24:12;9.90;99.90
22925;DHT22;11628;51.072;3.712;2024-03-02T13:26:37;10.00;99.90
22925;DHT22;11628;51.072;3.712;2024-03-02T13:29:03;9.90;99.90
22925;DHT22;11628;51.072;3.712;2024-03-02T13:31:29;9.90;99.90
22925;DHT22;11628;51.072;3.712;2024-03-02T13:33:54;9.80;99.90
22925;DHT22;11628;51.072;3.712;2024-03-02T13:36:20;9.80;99.90
22925;DHT22;11628;51.072;3.712;2024-03-02T13:38:46;9.80;99.90
22925;DHT22;11628;51.072;3.712;2024-03-02T13:41:12;10.00;99.90
22925;DHT22;11628;51.072;3.712;2024-03-02T13:43:37;10.00;99.90
22925;DHT22;11628;51.072;3.712;2024-03-02T13:46:05;9.90;99.90
22925;DHT22;11628;51.072;3.712;2024-03-02T13:48:33;10.10;99.90
22925;DHT22;11628;51.072;3.712;2024-03-02T13:50:59;10.00;99.90
22925;DHT22;11628;51.072;3.712;2024-03-02T13:53:27;10.00;99.90
22925;DHT22;11628;51.072;3.712;2024-03-02T13:55:53;10.10;99.90
22925;DHT22;11628;51.072;3.712;2024-03-02T13:58:21;10.00;99.90
22925;DHT22;11628;51.072;3.712;2024-03-02T14:00:47;10.10;99.90
22925;DHT22;11628;51.072;3.712;2024-03-02T14:03:17;10.10;99.90
22925;DHT22;11628;51.072;3.712;2024-03-02T14:05:45;10.10;99.90
22925;DHT22;11628;51.072;3.712;2024-03-02T14:08:17;9.90;99.90
22925;DHT22;11628;51.072;3.712;2024-03-02T14:10:45;9.90;99.90
22925;DHT22;11628;51.072;3.712;2024-03-02T14:13:12;9.90;99.90
22925;DHT22;11628;51.072;3.712;2024-03-02T14:15:40;10.00;99.90
22925;DHT22;11628;51.072;3.712;2024-03-02T14:18:06;9.90;99.90
22925;DHT22;11628;51.072;3.712;2024-03-02T14:20:35;10.00;99.90
22925;DHT22;11628;51.072;3.712;2024-03-02T14:23:03;10.20;99.90
22925;DHT22;11628;51.072;3.712;2024-03-02T14:25:30;10.30;99.90
22925;DHT22;11628;51.072;3.712;2024-03-02T14:27:59;10.20;99.90
22925;DHT22;11628;51.072;3.712;2024-03-02T14:30:25;10.10;99.90
22925;DHT22;11628;51.072;3.712;2024-03-02T14:32:51;10.10;99.90
22925;DHT22;11628;51.072;3.712;2024-03-02T14:35:16;9.90;99.90
22925;DHT22;11628;51.072;3.712;2024-03-02T14:37:42;9.90;99.90
22925;DHT22;11628;51.072;3.712;2024-03-02T14:40:08;10.00;99.90
22925;DHT22;11628;51.072;3.712;2024-03-02T14:42:40;9.90;99.90
22925;DHT22;11628;51.072;3.712;2024-03-02T14:45:07;9.90;99.90
22925;DHT22;11628;51.072;3.712;2024-03-02T14:47:36;10.10;99.90
22925;DHT22;11628;51.072;3.712;2024-03-02T14:50:02;10.30;99.90
22925;DHT22;11628;51.072;3.712;2024-03-02T14:52:32;10.30;99.90
22925;DHT22;11628;51.072;3.712;2024-03-02T14:54:58;10.20;99.90
22925;DHT22;11628;51.072;3.712;2024-03-02T14:57:24;10.10;99.90
22925;DHT22;11628;51.072;3.712;2024-03-02T14:59:50;10.30;99.90
22925;DHT22;11628;51.072;3.712;2024-03-02T15:02:18;10.30;99.90
22925;DHT22;11628;51.072;3.712;2024-03-02T15:04:44;10.30;99.90
22925;DHT22;11628;51.072;3.712;2024-03-02T15:07:16;10.60;99.90
22925;DHT22;11628;51.072;3.712;2024-03-02T15:09:41;10.50;99.90
22925;DHT22;11628;51.072;3.712;2024-03-02T15:12:10;10.40;99.90
22925;DHT22;11628;51.072;3.712;2024-03-02T15:14:38;10.40;99.90
22925;DHT22;11628;51.072;3.712;2024-03-02T15:17:14;10.30;99.90
22925;DHT22;11628;51.072;3.712;2024-03-02T15:19:45;10.30;99.90
22925;DHT22;11628;51.072;3.712;2024-03-02T15:22:12;10.30;99.90
22925;DHT22;11628;51.072;3.712;2024-03-02T15:24:39;10.40;99.90
22925;DHT22;11628;51.072;3.712;2024-03-02T15:27:08;10.60;99.90
22925;DHT22;11628;51.072;3.712;2024-03-02T15:29:36;10.50;99.90
22925;DHT22;11628;51.072;3.712;2024-03-02T15:32:05;10.60;99.90
22925;DHT22;11628;51.072;3.712;2024-03-02T15:34:32;10.60;99.90
22925;DHT22;11628;51.072;3.712;2024-03-02T15:36:58;10.60;99.90
22925;DHT22;11628;51.072;3.712;2024-03-02T15:39:25;10.80;99.90
22925;DHT22;11628;51.072;3.712;2024-03-02T15:41:50;10.80;99.90
22925;DHT22;11628;51.072;3.712;2024-03-02T15:44:19;10.90;99.90
22925;DHT22;11628;51.072;3.712;2024-03-02T15:46:45;11.00;99.90
22925;DHT22;11628;51.072;3.712;2024-03-02T15:49:10;11.10;99.90
22925;DHT22;11628;51.072;3.712;2024-03-02T15:51:38;11.00;99.90
22925;DHT22;11628;51.072;3.712;2024-03-02T15:54:12;11.10;99.90
22925;DHT22;11628;51.072;3.712;2024-03-02T15:56:38;11.00;99.90
22925;DHT22;11628;51.072;3.712;2024-03-02T15:59:07;11.20;99.90
22925;DHT22;11628;51.072;3.712;2024-03-02T16:01:35;11.20;99.90
22925;DHT22;11628;51.072;3.712;2024-03-02T16:04:00;11.20;99.90